createdAt,value
2023-05-20T00:04:52.251Z,101557.77
2023-05-20T00:09:55.086Z,101559.72
2023-05-20T00:14:57.925Z,101560.58
2023-05-20T00:20:00.797Z,101559.81
2023-05-20T00:25:03.724Z,101556.58
2023-05-20T00:30:07.598Z,101555.20
2023-05-20T00:35:11.672Z,101554.25
2023-05-20T00:40:15.971Z,101551.88
2023-05-20T00:45:18.781Z,101548.00
2023-05-20T00:50:21.764Z,101549.48
2023-05-20T00:55:25.788Z,101543.68
2023-05-20T01:00:28.531Z,101543.92
2023-05-20T01:05:31.319Z,101541.39
2023-05-20T01:10:39.555Z,101533.13
2023-05-20T01:15:46.488Z,101535.25
2023-05-20T01:20:54.786Z,101531.62
2023-05-20T01:25:57.523Z,101530.80
2023-05-20T01:31:04.167Z,101533.17
2023-05-20T01:36:08.896Z,101531.40
2023-05-20T01:41:12.788Z,101531.36
2023-05-20T01:46:15.744Z,101533.29
2023-05-20T01:51:18.482Z,101532.10
2023-05-20T01:56:22.289Z,101534.42
2023-05-20T02:01:25.109Z,101540.63
2023-05-20T02:06:27.971Z,101541.20
2023-05-20T02:11:30.805Z,101538.52
2023-05-20T02:16:33.765Z,101539.19
2023-05-20T02:21:36.621Z,101542.67
2023-05-20T02:26:39.365Z,101539.90
2023-05-20T02:31:42.157Z,101538.36
2023-05-20T02:36:44.871Z,101537.13
2023-05-20T02:41:47.740Z,101532.52
2023-05-20T02:46:50.629Z,101533.46
2023-05-20T02:51:53.357Z,101526.97
2023-05-20T02:56:56.154Z,101519.67
2023-05-20T03:01:58.980Z,101521.16
2023-05-20T03:07:01.743Z,101520.92
2023-05-20T03:12:04.837Z,101521.19
2023-05-20T03:17:09.530Z,101521.31
2023-05-20T03:22:12.347Z,101524.52
2023-05-20T03:27:15.088Z,101530.39
2023-05-20T03:32:18.018Z,101532.38
2023-05-20T03:37:20.724Z,101538.78
2023-05-20T03:42:23.501Z,101535.61
2023-05-20T03:47:27.302Z,101536.97
2023-05-20T03:52:30.100Z,101543.45
2023-05-20T03:57:32.907Z,101544.52
2023-05-20T04:02:35.771Z,101543.91
2023-05-20T04:07:38.606Z,101545.19
2023-05-20T04:12:41.536Z,101552.11
2023-05-20T04:17:48.627Z,101550.98
2023-05-20T04:22:52.437Z,101546.27
2023-05-20T04:27:55.272Z,101543.47
2023-05-20T04:32:58.086Z,101551.47
2023-05-20T04:38:02.117Z,101545.38
2023-05-20T04:43:04.982Z,101540.62
2023-05-20T04:48:07.765Z,101535.27
2023-05-20T04:53:10.535Z,101535.37
2023-05-20T04:58:17.615Z,101536.02
2023-05-20T05:03:20.416Z,101532.33
2023-05-20T05:08:23.186Z,101538.55
2023-05-20T05:13:26.766Z,101541.28
2023-05-20T05:18:29.635Z,101538.46
2023-05-20T05:23:33.384Z,101537.20
2023-05-20T05:28:36.091Z,101526.48
2023-05-20T05:33:38.886Z,101526.15
2023-05-20T05:38:41.512Z,101528.35
2023-05-20T05:43:44.271Z,101525.86
2023-05-20T05:48:49.293Z,101527.73
2023-05-20T05:53:52.016Z,101533.30
2023-05-20T05:58:54.823Z,101533.27
2023-05-20T06:03:57.552Z,101534.11
2023-05-20T06:09:00.463Z,101534.27
2023-05-20T06:14:03.210Z,101537.40
2023-05-20T06:19:06.114Z,101537.53
2023-05-20T06:24:08.980Z,101540.66
2023-05-20T06:29:12.039Z,101534.92
2023-05-20T06:34:14.722Z,101531.81
2023-05-20T06:39:17.437Z,101525.32
2023-05-20T06:44:20.126Z,101524.73
2023-05-20T06:49:24.158Z,101531.30
2023-05-20T06:54:26.959Z,101532.23
2023-05-20T06:59:29.927Z,101528.17
2023-05-20T07:04:32.694Z,101523.20
2023-05-20T07:09:35.863Z,101523.98
2023-05-20T07:14:38.627Z,101523.05
2023-05-20T07:19:41.502Z,101519.67
2023-05-20T07:24:59.855Z,101520.05
2023-05-20T07:30:02.738Z,101522.98
2023-05-20T07:35:06.006Z,101519.04
2023-05-20T07:40:09.876Z,101518.73
2023-05-20T07:45:12.592Z,101516.73
2023-05-20T07:50:15.510Z,101517.61
2023-05-20T07:55:18.665Z,101518.05
2023-05-20T08:00:21.526Z,101510.98
2023-05-20T08:05:24.308Z,101511.31
2023-05-20T08:10:27.027Z,101513.89
2023-05-20T08:15:29.834Z,101513.45
2023-05-20T08:20:32.570Z,101506.73
2023-05-20T08:25:35.474Z,101506.52
2023-05-20T08:30:38.408Z,101501.77
2023-05-20T08:35:41.288Z,101497.62
2023-05-20T08:40:44.258Z,101496.94
2023-05-20T08:45:47.152Z,101498.73
2023-05-20T08:50:54.398Z,101505.56
2023-05-20T08:56:02.887Z,101503.74
2023-05-20T09:01:07.978Z,101505.22
2023-05-20T09:06:11.205Z,101508.05
2023-05-20T09:11:13.925Z,101513.86
2023-05-20T09:16:17.124Z,101511.94
2023-05-20T09:21:26.778Z,101509.30
2023-05-20T09:26:30.235Z,101506.14
2023-05-20T09:31:34.127Z,101504.23
2023-05-20T09:36:40.354Z,101501.65
2023-05-20T09:41:55.046Z,101496.27
2023-05-20T09:46:59.276Z,101496.55
2023-05-20T09:52:03.628Z,101489.23
2023-05-20T09:57:08.052Z,101487.29
2023-05-20T10:02:11.235Z,101487.06
2023-05-20T10:07:42.416Z,101484.30
2023-05-20T10:12:58.825Z,101483.48
2023-05-20T10:18:25.637Z,101477.35
2023-05-20T10:23:29.951Z,101466.21
2023-05-20T10:28:36.441Z,101464.02
2023-05-20T10:33:43.774Z,101455.39
2023-05-20T10:38:57.303Z,101450.23
2023-05-20T10:44:01.678Z,101446.80
2023-05-20T10:49:05.576Z,101440.13
2023-05-20T10:54:10.769Z,101438.90
2023-05-20T10:59:14.309Z,101433.64
2023-05-20T11:04:18.004Z,101433.69
2023-05-20T11:09:21.006Z,101435.48
2023-05-20T11:14:24.012Z,101428.46
2023-05-20T11:19:27.356Z,101426.02
2023-05-20T11:24:30.780Z,101416.16
2023-05-20T11:29:33.956Z,101407.89
2023-05-20T11:34:38.647Z,101398.27
2023-05-20T11:39:41.398Z,101392.40
2023-05-20T11:44:45.359Z,101387.13
2023-05-20T11:49:49.341Z,101382.08
2023-05-20T11:54:53.558Z,101392.89
2023-05-20T11:59:56.387Z,101390.66
2023-05-20T12:04:59.335Z,101390.28
2023-05-20T12:10:03.991Z,101388.21
2023-05-20T12:15:07.226Z,101386.17
2023-05-20T12:20:10.353Z,101388.55
2023-05-20T12:25:17.730Z,101383.83
2023-05-20T12:30:22.091Z,101387.63
2023-05-20T12:35:36.218Z,101388.95
2023-05-20T12:40:39.740Z,101382.42
2023-05-20T12:45:43.068Z,101379.72
2023-05-20T12:50:45.910Z,101373.01
2023-05-20T12:55:48.678Z,101367.86
2023-05-20T13:00:51.445Z,101360.95
2023-05-20T13:05:54.232Z,101353.44
2023-05-20T13:10:56.983Z,101342.48
2023-05-20T13:15:59.730Z,101339.56
2023-05-20T13:21:02.507Z,101327.95
2023-05-20T13:26:05.343Z,101324.52
2023-05-20T13:31:08.072Z,101328.46
2023-05-20T13:36:10.938Z,101322.02
2023-05-20T13:41:13.699Z,101318.28
2023-05-20T13:46:17.295Z,101311.56
2023-05-20T13:51:20.204Z,101299.83
2023-05-20T13:56:23.326Z,101297.60
2023-05-20T14:01:26.102Z,101293.45
2023-05-20T14:06:29.542Z,101286.16
2023-05-20T14:11:32.316Z,101285.44
2023-05-20T14:16:35.430Z,101280.20
2023-05-20T14:21:38.382Z,101278.52
2023-05-20T14:26:41.161Z,101279.14
2023-05-20T14:31:43.994Z,101274.70
2023-05-20T14:36:46.836Z,101276.02
2023-05-20T14:41:49.605Z,101272.86
2023-05-20T14:46:52.404Z,101271.05
2023-05-20T14:51:55.397Z,101262.73
2023-05-20T14:56:58.250Z,101258.77
2023-05-20T15:02:04.443Z,101257.12
2023-05-20T15:07:07.173Z,101262.01
2023-05-20T15:12:11.391Z,101256.04
2023-05-20T15:17:14.335Z,101248.99
2023-05-20T15:22:17.084Z,101247.46
2023-05-20T15:27:19.889Z,101241.21
2023-05-20T15:32:22.793Z,101231.77
2023-05-20T15:37:25.637Z,101226.30
2023-05-20T15:42:28.439Z,101228.11
2023-05-20T15:47:31.216Z,101216.45
2023-05-20T15:52:34.186Z,101212.36
2023-05-20T15:57:37.007Z,101213.49
2023-05-20T16:02:40.371Z,101215.48
2023-05-20T16:07:43.822Z,101221.74
2023-05-20T16:12:46.999Z,101222.14
2023-05-20T16:17:49.838Z,101219.73
2023-05-20T16:22:52.585Z,101216.34
2023-05-20T16:27:55.706Z,101211.50
2023-05-20T16:32:58.541Z,101204.09
2023-05-20T16:38:01.934Z,101202.11
2023-05-20T16:43:04.714Z,101196.13
2023-05-20T16:48:07.488Z,101196.27
2023-05-20T16:53:10.281Z,101198.83
2023-05-20T16:58:13.336Z,101192.52
2023-05-20T17:03:18.110Z,101193.27
2023-05-20T17:08:21.033Z,101193.21
2023-05-20T17:13:23.783Z,101191.92
2023-05-20T17:18:26.578Z,101194.60
2023-05-20T17:23:29.358Z,101201.81
2023-05-20T17:28:32.114Z,101205.15
2023-05-20T17:33:35.589Z,101204.73
2023-05-20T17:38:38.481Z,101204.89
2023-05-20T17:43:41.292Z,101205.00
2023-05-20T17:48:44.991Z,101206.52
2023-05-20T17:53:48.090Z,101203.89
2023-05-20T17:58:50.834Z,101204.95
2023-05-20T18:03:54.232Z,101203.61
2023-05-20T18:08:57.308Z,101198.57
2023-05-20T18:14:01.912Z,101190.85
2023-05-20T18:19:04.810Z,101196.48
2023-05-20T18:24:07.529Z,101197.83
2023-05-20T18:29:12.388Z,101195.74
2023-05-20T18:34:16.356Z,101196.09
2023-05-20T18:39:21.096Z,101193.56
2023-05-20T18:44:23.994Z,101200.23
2023-05-20T18:49:27.101Z,101198.84
2023-05-20T18:54:29.845Z,101203.73
2023-05-20T18:59:33.611Z,101207.66
2023-05-20T19:04:36.363Z,101213.16
2023-05-20T19:09:39.095Z,101213.38
2023-05-20T19:14:41.878Z,101213.65
2023-05-20T19:19:44.604Z,101208.38
2023-05-20T19:24:47.350Z,101201.92
2023-05-20T19:29:49.975Z,101198.34
2023-05-20T19:34:52.704Z,101201.16
2023-05-20T19:39:55.523Z,101206.02
2023-05-20T19:44:58.329Z,101209.27
2023-05-20T19:50:01.529Z,101207.25
2023-05-20T19:55:04.648Z,101208.89
2023-05-20T20:00:08.321Z,101207.29
2023-05-20T20:05:11.085Z,101204.71
2023-05-20T20:10:13.738Z,101208.58
2023-05-20T20:15:17.019Z,101211.50
2023-05-20T20:20:20.166Z,101213.81
2023-05-20T20:25:23.487Z,101214.06
2023-05-20T20:30:26.863Z,101217.65
2023-05-20T20:35:29.619Z,101214.30
2023-05-20T20:40:33.535Z,101217.42
2023-05-20T20:45:39.381Z,101220.98
2023-05-20T20:50:42.481Z,101222.78
2023-05-20T20:55:48.551Z,101222.04
2023-05-20T21:00:53.214Z,101226.67
2023-05-20T21:05:56.122Z,101228.83
2023-05-20T21:10:59.539Z,101228.08
2023-05-20T21:16:02.477Z,101233.05
2023-05-20T21:21:10.075Z,101232.15
2023-05-20T21:26:12.788Z,101241.84
2023-05-20T21:31:16.231Z,101241.42
2023-05-20T21:36:19.002Z,101235.83
2023-05-20T21:41:21.767Z,101234.61
2023-05-20T21:46:24.840Z,101233.37
2023-05-20T21:51:27.692Z,101229.23
2023-05-20T21:56:30.429Z,101221.80
2023-05-20T22:01:33.294Z,101227.77
2023-05-20T22:06:36.277Z,101224.67
2023-05-20T22:11:38.931Z,101227.36
2023-05-20T22:16:48.917Z,101229.17
2023-05-20T22:21:51.768Z,101226.29
2023-05-20T22:26:54.504Z,101224.33
2023-05-20T22:31:57.242Z,101226.64
2023-05-20T22:37:00.351Z,101221.92
2023-05-20T22:42:03.025Z,101221.57
2023-05-20T22:47:05.809Z,101222.05
2023-05-20T22:52:08.605Z,101221.35
2023-05-20T22:57:12.280Z,101223.55
2023-05-20T23:02:15.096Z,101225.89
2023-05-20T23:07:19.403Z,101226.33
2023-05-20T23:12:22.113Z,101223.41
2023-05-20T23:17:24.882Z,101220.52
2023-05-20T23:22:27.644Z,101222.00
2023-05-20T23:27:30.361Z,101227.39
2023-05-20T23:32:33.171Z,101233.73
2023-05-20T23:37:36.101Z,101229.10
2023-05-20T23:42:39.764Z,101235.02
2023-05-20T23:47:43.718Z,101233.27
2023-05-20T23:52:46.502Z,101226.94
2023-05-20T23:57:50.010Z,101228.20
